createdAt,value
2023-02-03T00:00:00.967Z,29.95
2023-02-03T00:02:28.148Z,30.58
2023-02-03T00:04:55.314Z,23.23
2023-02-03T00:07:22.517Z,27.48
2023-02-03T00:09:49.692Z,20.95
2023-02-03T00:12:16.847Z,9.02
2023-02-03T00:14:44.183Z,4.30
2023-02-03T00:17:11.584Z,1.75
2023-02-03T00:19:38.765Z,6.50
2023-02-03T00:22:06.008Z,8.63
2023-02-03T00:24:33.232Z,1.20
2023-02-03T00:27:00.376Z,1.35
2023-02-03T00:29:27.814Z,1.48
2023-02-03T00:31:55.139Z,4.05
2023-02-03T00:34:22.405Z,11.02
2023-02-03T00:36:49.784Z,1.33
2023-02-03T00:39:16.906Z,4.18
2023-02-03T00:41:44.149Z,13.18
2023-02-03T00:44:11.424Z,5.93
2023-02-03T00:46:38.966Z,7.28
2023-02-03T00:49:06.503Z,7.53
2023-02-03T00:51:34.324Z,1.02
2023-02-03T00:54:01.571Z,1.52
2023-02-03T00:56:28.726Z,7.10
2023-02-03T00:58:55.929Z,7.72
2023-02-03T01:01:25.815Z,7.55
2023-02-03T01:03:53.103Z,1.10
2023-02-03T01:06:21.095Z,2.05
2023-02-03T01:08:48.396Z,2.35
2023-02-03T01:11:17.344Z,1.95
2023-02-03T01:13:45.015Z,1.33
2023-02-03T01:16:13.542Z,2.05
2023-02-03T01:18:40.798Z,2.45
2023-02-03T01:21:08.936Z,2.33
2023-02-03T01:23:36.574Z,1.80
2023-02-03T01:26:04.930Z,1.20
2023-02-03T01:28:32.201Z,2.13
2023-02-03T01:30:59.588Z,3.13
2023-02-03T01:33:26.753Z,4.07
2023-02-03T01:35:54.040Z,3.08
2023-02-03T01:38:21.213Z,7.07
2023-02-03T01:40:48.445Z,3.30
2023-02-03T01:43:29.929Z,1.38
2023-02-03T01:45:57.779Z,2.75
2023-02-03T01:48:25.086Z,4.15
2023-02-03T01:50:52.426Z,6.80
2023-02-03T01:53:19.543Z,4.88
2023-02-03T01:55:52.007Z,5.95
2023-02-03T01:58:24.867Z,7.57
2023-02-03T02:00:53.148Z,5.25
2023-02-03T02:03:22.035Z,3.28
2023-02-03T02:05:51.433Z,5.63
2023-02-03T02:08:19.496Z,4.63
2023-02-03T02:10:46.752Z,3.70
2023-02-03T02:13:16.438Z,6.47
2023-02-03T02:16:13.079Z,3.72
2023-02-03T02:18:51.424Z,3.17
2023-02-03T02:21:21.531Z,2.70
2023-02-03T02:23:56.403Z,3.60
2023-02-03T02:26:40.362Z,9.10
2023-02-03T02:29:23.009Z,6.45
2023-02-03T02:31:59.412Z,2.90
2023-02-03T02:34:38.415Z,4.70
2023-02-03T02:37:24.001Z,5.88
2023-02-03T02:40:10.166Z,6.57
2023-02-03T02:42:43.515Z,4.40
2023-02-03T02:45:10.645Z,3.47
2023-02-03T02:47:38.655Z,3.85
2023-02-03T02:50:07.885Z,3.05
2023-02-03T02:52:37.299Z,3.00
2023-02-03T02:55:08.710Z,4.88
2023-02-03T02:57:37.144Z,4.30
2023-02-03T03:00:05.675Z,7.43
2023-02-03T03:02:34.984Z,4.22
2023-02-03T03:05:03.259Z,11.45
2023-02-03T03:07:31.741Z,5.97
2023-02-03T03:10:01.084Z,6.50
2023-02-03T03:12:30.706Z,9.45
2023-02-03T03:15:00.909Z,7.70
2023-02-03T03:17:30.515Z,9.15
2023-02-03T03:19:59.529Z,8.60
2023-02-03T03:22:30.981Z,7.28
2023-02-03T03:25:04.027Z,9.65
2023-02-03T03:27:33.307Z,7.38
2023-02-03T03:30:02.971Z,7.70
2023-02-03T03:32:33.046Z,13.43
2023-02-03T03:35:01.369Z,12.48
2023-02-03T03:37:42.649Z,7.32
2023-02-03T03:40:19.457Z,5.75
2023-02-03T03:42:51.040Z,18.88
2023-02-03T03:45:41.043Z,17.83
2023-02-03T03:48:16.403Z,8.02
2023-02-03T03:50:46.802Z,12.07
2023-02-03T03:53:15.901Z,8.60
2023-02-03T03:55:44.054Z,12.13
2023-02-03T03:58:11.182Z,10.45
2023-02-03T04:00:39.571Z,10.20
2023-02-03T04:03:12.230Z,10.52
2023-02-03T04:05:40.333Z,10.98
2023-02-03T04:08:07.681Z,8.20
2023-02-03T04:10:36.647Z,8.02
2023-02-03T04:13:04.302Z,7.13
2023-02-03T04:15:32.159Z,6.32
2023-02-03T04:18:01.553Z,8.88
2023-02-03T04:20:29.853Z,4.60
2023-02-03T04:22:57.474Z,4.60
2023-02-03T04:25:25.245Z,4.25
2023-02-03T04:27:52.576Z,6.18
2023-02-03T04:30:19.764Z,3.13
2023-02-03T04:32:47.452Z,2.33
2023-02-03T04:35:14.898Z,2.67
2023-02-03T04:37:42.046Z,2.40
2023-02-03T04:40:09.923Z,2.45
2023-02-03T04:42:38.786Z,2.22
2023-02-03T04:45:07.012Z,2.55
2023-02-03T04:47:34.246Z,5.90
2023-02-03T04:50:01.468Z,2.10
2023-02-03T04:52:28.673Z,4.45
2023-02-03T04:54:55.851Z,4.07
2023-02-03T04:57:23.116Z,8.40
2023-02-03T04:59:50.223Z,4.20
2023-02-03T05:02:17.420Z,3.55
2023-02-03T05:04:44.642Z,5.78
2023-02-03T05:07:12.165Z,3.70
2023-02-03T05:09:39.332Z,5.20
2023-02-03T05:12:06.623Z,1.95
2023-02-03T05:14:33.829Z,2.72
2023-02-03T05:17:00.978Z,3.55
2023-02-03T05:19:28.181Z,0.93
2023-02-03T05:21:55.461Z,2.08
2023-02-03T05:24:22.646Z,7.53
2023-02-03T05:26:49.944Z,5.43
2023-02-03T05:29:17.150Z,3.03
2023-02-03T05:31:44.377Z,1.95
2023-02-03T05:34:11.643Z,0.75
2023-02-03T05:36:40.387Z,6.35
2023-02-03T05:39:07.539Z,8.40
2023-02-03T05:41:52.907Z,3.15
2023-02-03T05:44:21.200Z,0.90
2023-02-03T05:46:48.855Z,5.55
2023-02-03T05:49:16.528Z,2.25
2023-02-03T05:51:43.742Z,5.60
2023-02-03T05:54:11.214Z,4.57
2023-02-03T05:56:38.554Z,4.72
2023-02-03T05:59:05.953Z,11.82
2023-02-03T06:01:33.567Z,4.43
2023-02-03T06:04:01.178Z,2.00
2023-02-03T06:06:33.722Z,6.35
2023-02-03T06:09:01.490Z,6.55
2023-02-03T06:11:28.833Z,21.70
2023-02-03T06:13:58.550Z,12.77
2023-02-03T06:16:26.994Z,32.72
2023-02-03T06:18:54.747Z,26.58
2023-02-03T06:21:22.634Z,5.68
2023-02-03T06:23:49.879Z,2.55
2023-02-03T06:26:17.122Z,11.25
2023-02-03T06:28:44.363Z,5.70
2023-02-03T06:31:11.777Z,9.38
2023-02-03T06:33:39.014Z,8.10
2023-02-03T06:36:06.364Z,4.25
2023-02-03T06:38:33.585Z,8.90
2023-02-03T06:41:00.766Z,16.50
2023-02-03T06:43:28.024Z,8.30
2023-02-03T06:45:55.251Z,7.45
2023-02-03T06:48:22.631Z,17.15
2023-02-03T06:50:49.847Z,10.07
2023-02-03T06:53:17.144Z,14.23
2023-02-03T06:55:44.358Z,14.10
2023-02-03T06:58:11.588Z,12.63
2023-02-03T07:00:38.801Z,5.55
2023-02-03T07:03:06.193Z,8.10
2023-02-03T07:05:33.500Z,9.07
2023-02-03T07:08:02.762Z,8.52
2023-02-03T07:10:32.048Z,5.55
2023-02-03T07:13:03.360Z,8.45
2023-02-03T07:15:30.532Z,7.78
2023-02-03T07:17:58.114Z,7.20
2023-02-03T07:20:25.491Z,14.00
2023-02-03T07:22:55.423Z,15.43
2023-02-03T07:25:22.703Z,11.68
2023-02-03T07:27:50.031Z,5.95
2023-02-03T07:30:17.349Z,8.43
2023-02-03T07:32:49.001Z,9.82
2023-02-03T07:35:16.232Z,9.43
2023-02-03T07:37:43.621Z,18.52
2023-02-03T07:40:11.862Z,5.82
2023-02-03T07:42:46.436Z,4.10
2023-02-03T07:45:14.776Z,3.92
2023-02-03T07:47:42.521Z,12.30
2023-02-03T07:50:10.360Z,3.03
2023-02-03T07:52:38.057Z,8.45
2023-02-03T07:55:05.277Z,3.88
2023-02-03T07:57:32.499Z,2.15
2023-02-03T07:59:59.748Z,2.97
2023-02-03T08:02:26.974Z,5.97
2023-02-03T08:04:54.233Z,3.28
2023-02-03T08:07:21.404Z,5.60
2023-02-03T08:09:48.552Z,1.88
2023-02-03T08:12:15.910Z,2.08
2023-02-03T08:14:43.023Z,4.05
2023-02-03T08:17:10.516Z,2.35
2023-02-03T08:19:37.651Z,4.10
2023-02-03T08:22:04.779Z,4.80
2023-02-03T08:24:31.962Z,4.93
2023-02-03T08:26:59.946Z,3.35
2023-02-03T08:29:27.294Z,4.72
2023-02-03T08:31:55.127Z,4.75
2023-02-03T08:34:22.528Z,5.53
2023-02-03T08:36:49.880Z,3.53
2023-02-03T08:39:17.033Z,7.07
2023-02-03T08:41:44.170Z,3.72
2023-02-03T08:44:11.364Z,3.50
2023-02-03T08:46:43.487Z,7.53
2023-02-03T08:49:11.431Z,2.80
2023-02-03T08:51:38.650Z,7.38
2023-02-03T08:54:05.979Z,5.15
2023-02-03T08:56:34.204Z,5.50
2023-02-03T08:59:01.628Z,4.15
2023-02-03T09:01:29.099Z,5.10
2023-02-03T09:03:56.330Z,9.52
2023-02-03T09:06:26.065Z,5.28
2023-02-03T09:08:53.420Z,3.45
2023-02-03T09:11:20.597Z,1.85
2023-02-03T09:13:48.733Z,2.70
2023-02-03T09:16:21.408Z,3.45
2023-02-03T09:18:48.692Z,1.93
2023-02-03T09:21:32.095Z,2.17
2023-02-03T09:24:04.654Z,1.48
2023-02-03T09:26:31.878Z,1.55
2023-02-03T09:28:59.163Z,0.90
2023-02-03T09:31:26.388Z,4.28
2023-02-03T09:33:53.547Z,1.27
2023-02-03T09:36:20.741Z,1.50
2023-02-03T09:38:48.340Z,0.85
2023-02-03T09:41:21.057Z,1.00
2023-02-03T09:43:57.808Z,2.00
2023-02-03T09:46:26.994Z,1.85
2023-02-03T09:48:56.697Z,1.65
2023-02-03T09:51:27.337Z,1.55
2023-02-03T09:53:59.216Z,2.63
2023-02-03T09:56:36.929Z,0.90
2023-02-03T09:59:04.500Z,2.95
2023-02-03T10:01:38.840Z,0.77
2023-02-03T10:04:10.879Z,0.95
2023-02-03T10:06:40.105Z,0.82
2023-02-03T10:09:26.561Z,5.53
2023-02-03T10:11:53.687Z,0.47
2023-02-03T10:14:44.495Z,1.15
2023-02-03T10:17:30.699Z,1.50
2023-02-03T10:20:02.011Z,0.63
2023-02-03T10:22:30.387Z,0.50
2023-02-03T10:25:09.761Z,0.57
2023-02-03T10:27:38.681Z,1.17
2023-02-03T10:30:05.911Z,0.65
2023-02-03T10:32:33.849Z,1.95
2023-02-03T10:35:01.997Z,1.27
2023-02-03T10:37:30.349Z,1.05
2023-02-03T10:39:58.456Z,0.65
2023-02-03T10:42:25.930Z,0.80
2023-02-03T10:44:54.636Z,1.45
2023-02-03T10:47:30.583Z,1.35
2023-02-03T10:49:58.786Z,0.32
2023-02-03T10:52:28.625Z,0.20
2023-02-03T10:54:56.523Z,0.55
2023-02-03T10:57:23.821Z,0.35
2023-02-03T10:59:51.019Z,0.30
2023-02-03T11:02:31.303Z,0.40
2023-02-03T11:05:17.277Z,0.20
2023-02-03T11:07:44.581Z,0.30
2023-02-03T11:10:30.938Z,0.43
2023-02-03T11:13:17.057Z,0.40
2023-02-03T11:15:45.257Z,1.02
2023-02-03T11:18:31.294Z,0.10
2023-02-03T11:20:59.708Z,1.40
2023-02-03T11:23:27.009Z,0.28
2023-02-03T11:25:54.207Z,2.00
2023-02-03T11:28:22.108Z,0.20
2023-02-03T11:30:55.710Z,0.35
2023-02-03T11:36:00.469Z,0.10
2023-02-03T11:38:29.696Z,0.30
2023-02-03T11:41:00.047Z,0.20
2023-02-03T11:43:29.126Z,0.65
2023-02-03T11:46:01.828Z,1.10
2023-02-03T11:48:33.498Z,0.20
2023-02-03T11:51:06.470Z,1.63
2023-02-03T11:53:57.193Z,2.10
2023-02-03T11:56:43.587Z,0.52
2023-02-03T11:59:26.208Z,0.10
2023-02-03T12:02:12.165Z,0.10
2023-02-03T12:04:39.286Z,0.40
2023-02-03T12:07:29.951Z,1.98
2023-02-03T12:10:01.146Z,0.10
2023-02-03T12:12:50.096Z,0.10
2023-02-03T12:15:20.334Z,0.10
2023-02-03T12:17:55.205Z,0.10
2023-02-03T12:20:32.160Z,0.20
2023-02-03T12:23:11.494Z,1.23
2023-02-03T12:26:00.190Z,0.38
2023-02-03T12:28:33.320Z,0.10
2023-02-03T12:31:05.335Z,0.55
2023-02-03T12:33:35.604Z,0.65
2023-02-03T12:36:02.750Z,0.30
2023-02-03T12:38:33.498Z,0.20
2023-02-03T12:41:01.607Z,0.30
2023-02-03T12:43:37.642Z,1.23
2023-02-03T12:46:08.531Z,1.98
2023-02-03T12:48:45.636Z,4.65
2023-02-03T12:51:17.051Z,5.05
2023-02-03T12:53:48.943Z,0.90
2023-02-03T12:56:19.111Z,0.50
2023-02-03T12:58:48.951Z,0.20
2023-02-03T13:01:19.350Z,0.40
2023-02-03T13:03:50.000Z,0.80
2023-02-03T13:06:20.911Z,0.40
2023-02-03T13:08:54.287Z,2.28
2023-02-03T13:11:25.100Z,3.13
2023-02-03T13:13:56.611Z,2.08
2023-02-03T13:16:33.874Z,0.30
2023-02-03T13:19:04.162Z,0.35
2023-02-03T13:21:31.836Z,1.00
2023-02-03T13:23:59.688Z,0.20
2023-02-03T13:26:48.489Z,0.70
2023-02-03T13:29:29.739Z,1.52
2023-02-03T13:32:11.927Z,0.32
2023-02-03T13:34:44.592Z,1.55
2023-02-03T13:37:24.637Z,3.13
2023-02-03T13:39:51.826Z,7.35
2023-02-03T13:42:19.083Z,4.97
2023-02-03T13:44:51.541Z,2.75
2023-02-03T13:47:23.491Z,0.95
2023-02-03T13:49:54.862Z,1.05
2023-02-03T13:52:25.239Z,2.05
2023-02-03T13:54:52.629Z,5.78
2023-02-03T13:57:24.917Z,1.00
2023-02-03T13:59:52.177Z,0.98
2023-02-03T14:02:22.421Z,3.20
2023-02-03T14:04:53.802Z,4.80
2023-02-03T14:07:27.311Z,1.48
2023-02-03T14:10:06.979Z,2.53
2023-02-03T14:12:35.892Z,0.35
2023-02-03T14:15:17.491Z,0.30
2023-02-03T14:17:44.675Z,0.30
2023-02-03T14:20:27.274Z,0.10
2023-02-03T14:22:54.746Z,0.30
2023-02-03T14:25:22.112Z,1.13
2023-02-03T14:27:49.636Z,0.22
2023-02-03T14:30:17.261Z,0.38
2023-02-03T14:32:51.820Z,0.45
2023-02-03T14:35:21.389Z,0.30
2023-02-03T14:38:08.941Z,0.30
2023-02-03T14:40:44.605Z,0.40
2023-02-03T14:43:30.703Z,0.20
2023-02-03T14:46:10.155Z,0.65
2023-02-03T14:48:59.585Z,0.10
2023-02-03T14:51:35.822Z,0.80
2023-02-03T14:54:12.061Z,0.70
2023-02-03T14:57:13.977Z,3.05
2023-02-03T14:59:44.879Z,0.20
2023-02-03T15:02:14.992Z,0.38
2023-02-03T15:04:42.769Z,2.08
2023-02-03T15:07:10.100Z,1.77
2023-02-03T15:09:43.463Z,1.15
2023-02-03T15:12:17.866Z,1.20
2023-02-03T15:14:45.039Z,1.73
2023-02-03T15:17:27.885Z,1.38
2023-02-03T15:19:55.490Z,33.10
2023-02-03T15:22:24.451Z,3.97
2023-02-03T15:24:56.623Z,5.28
2023-02-03T15:27:24.855Z,3.35
2023-02-03T15:29:52.313Z,3.35
2023-02-03T15:32:28.949Z,3.67
2023-02-03T15:34:56.609Z,22.52
2023-02-03T15:37:37.762Z,2.95
2023-02-03T15:40:09.221Z,4.00
2023-02-03T15:42:44.701Z,4.80
2023-02-03T15:45:24.057Z,7.05
2023-02-03T15:47:56.725Z,11.63
2023-02-03T15:50:23.856Z,8.93
2023-02-03T15:52:52.740Z,6.55
2023-02-03T15:55:25.318Z,10.63
2023-02-03T15:57:52.641Z,9.98
2023-02-03T16:00:27.622Z,6.90
2023-02-03T16:02:55.340Z,9.73
2023-02-03T16:05:26.562Z,7.20
2023-02-03T16:07:53.815Z,12.73
2023-02-03T16:10:29.059Z,10.18
2023-02-03T16:13:13.514Z,8.15
2023-02-03T16:15:40.893Z,11.88
2023-02-03T16:18:17.247Z,12.02
2023-02-03T16:20:51.755Z,9.55
2023-02-03T16:23:20.598Z,16.50
2023-02-03T16:26:06.068Z,15.63
2023-02-03T16:28:51.809Z,13.65
2023-02-03T16:31:39.026Z,14.38
2023-02-03T16:34:35.334Z,15.32
2023-02-03T16:37:21.418Z,12.82
2023-02-03T16:40:07.003Z,14.57
2023-02-03T16:42:57.111Z,14.38
2023-02-03T16:45:42.958Z,14.55
2023-02-03T16:48:29.987Z,13.15
2023-02-03T16:50:59.498Z,14.75
2023-02-03T16:53:28.531Z,14.68
2023-02-03T16:55:56.778Z,19.52
2023-02-03T16:58:24.303Z,19.85
2023-02-03T17:00:52.819Z,15.07
2023-02-03T17:03:21.407Z,13.52
2023-02-03T17:05:49.531Z,16.60
2023-02-03T17:08:17.650Z,14.77
2023-02-03T17:10:45.763Z,14.43
2023-02-03T17:13:13.185Z,16.45
2023-02-03T17:15:41.393Z,13.10
2023-02-03T17:18:08.861Z,13.02
2023-02-03T17:20:37.247Z,15.55
2023-02-03T17:23:04.836Z,14.68
2023-02-03T17:25:35.919Z,11.32
2023-02-03T17:28:04.384Z,11.90
2023-02-03T17:30:34.112Z,9.68
2023-02-03T17:33:02.206Z,14.63
2023-02-03T17:35:29.642Z,19.98
2023-02-03T17:37:56.983Z,13.35
2023-02-03T17:54:14.143Z,10.63
2023-02-03T17:56:41.361Z,13.82
2023-02-03T17:59:08.809Z,16.65
2023-02-03T18:01:36.017Z,13.80
2023-02-03T18:04:04.630Z,11.48
2023-02-03T18:06:35.104Z,25.73
2023-02-03T18:09:06.662Z,25.17
2023-02-03T18:11:34.729Z,27.80
2023-02-03T18:14:02.459Z,11.13
2023-02-03T18:16:35.726Z,13.82
2023-02-03T18:19:04.378Z,12.20
2023-02-03T18:21:36.501Z,12.75
2023-02-03T18:24:05.872Z,11.50
2023-02-03T18:26:36.410Z,15.00
2023-02-03T18:29:05.557Z,13.57
2023-02-03T18:31:33.236Z,15.13
2023-02-03T18:34:06.998Z,14.00
2023-02-03T18:36:34.474Z,15.57
2023-02-03T18:39:01.728Z,14.85
2023-02-03T18:41:29.285Z,14.70
2023-02-03T18:43:56.410Z,11.77
2023-02-03T18:46:25.236Z,10.65
2023-02-03T18:48:52.562Z,12.45
2023-02-03T18:51:20.772Z,12.55
2023-02-03T18:53:49.218Z,11.73
2023-02-03T18:56:17.794Z,12.68
2023-02-03T18:58:45.087Z,14.55
2023-02-03T19:01:21.331Z,13.68
2023-02-03T19:03:49.140Z,12.52
2023-02-03T19:06:16.339Z,10.25
2023-02-03T19:08:43.473Z,12.77
2023-02-03T19:11:10.785Z,18.23
2023-02-03T19:13:38.212Z,12.27
2023-02-03T19:16:09.064Z,16.85
2023-02-03T19:18:36.287Z,13.55
2023-02-03T19:21:03.664Z,14.90
2023-02-03T19:23:31.184Z,18.92
2023-02-03T19:25:58.506Z,16.30
2023-02-03T19:28:30.751Z,9.93
2023-02-03T19:31:08.982Z,14.15
2023-02-03T19:33:36.853Z,12.95
2023-02-03T19:36:05.125Z,15.63
2023-02-03T19:38:32.353Z,13.07
2023-02-03T19:41:01.630Z,14.55
2023-02-03T19:43:29.391Z,14.23
2023-02-03T19:45:56.810Z,12.30
2023-02-03T19:48:23.938Z,5.85
2023-02-03T19:50:51.165Z,11.45
2023-02-03T19:53:18.754Z,9.57
2023-02-03T19:55:47.132Z,10.50
2023-02-03T19:58:14.832Z,10.77
2023-02-03T20:00:42.883Z,13.60
2023-02-03T20:03:10.400Z,13.20
2023-02-03T20:05:38.368Z,10.48
2023-02-03T20:08:05.842Z,14.32
2023-02-03T20:10:33.254Z,11.88
2023-02-03T20:13:00.632Z,15.73
2023-02-03T20:15:27.888Z,19.60
2023-02-03T20:17:55.068Z,25.05
2023-02-03T20:20:22.233Z,15.50
2023-02-03T20:22:49.669Z,31.58
2023-02-03T20:25:16.930Z,16.02
2023-02-03T20:27:44.172Z,19.35
2023-02-03T20:30:11.967Z,11.73
2023-02-03T20:32:39.684Z,13.23
2023-02-03T20:35:07.297Z,16.17
2023-02-03T20:37:36.187Z,18.95
2023-02-03T20:40:04.394Z,15.77
2023-02-03T20:42:31.728Z,17.08
2023-02-03T20:44:58.919Z,15.02
2023-02-03T20:47:26.689Z,14.10
2023-02-03T20:49:54.603Z,15.68
2023-02-03T20:52:21.841Z,14.15
2023-02-03T20:54:49.153Z,18.15
2023-02-03T20:57:17.501Z,14.07
2023-02-03T20:59:44.927Z,20.30
2023-02-03T21:02:22.829Z,17.27
2023-02-03T21:05:00.590Z,14.60
2023-02-03T21:07:30.590Z,15.52
2023-02-03T21:09:59.442Z,18.83
2023-02-03T21:12:28.253Z,11.65
2023-02-03T21:14:55.549Z,12.05
2023-02-03T21:17:27.294Z,14.30
2023-02-03T21:19:54.990Z,12.55
2023-02-03T21:22:26.107Z,10.82
2023-02-03T21:24:54.550Z,14.52
2023-02-03T21:27:28.660Z,13.63
2023-02-03T21:29:57.337Z,13.15
2023-02-03T21:32:25.715Z,14.70
2023-02-03T21:34:52.864Z,17.20
2023-02-03T21:37:40.072Z,11.57
2023-02-03T21:40:18.818Z,17.15
2023-02-03T21:42:46.916Z,6.07
2023-02-03T21:45:17.135Z,16.75
2023-02-03T21:47:45.850Z,11.38
2023-02-03T21:50:32.220Z,16.90
2023-02-03T21:53:03.471Z,9.95
2023-02-03T21:55:30.579Z,12.20
2023-02-03T21:57:57.739Z,12.75
2023-02-03T22:00:43.405Z,10.32
2023-02-03T22:03:19.835Z,16.17
2023-02-03T22:05:47.481Z,14.77
2023-02-03T22:08:17.970Z,15.50
2023-02-03T22:10:45.129Z,17.40
2023-02-03T22:13:13.217Z,15.57
2023-02-03T22:15:41.117Z,12.38
2023-02-03T22:18:08.339Z,14.65
2023-02-03T22:20:36.007Z,15.45
2023-02-03T22:23:03.128Z,18.83
2023-02-03T22:25:30.287Z,10.55
2023-02-03T22:27:57.501Z,19.23
2023-02-03T22:30:24.721Z,13.60
2023-02-03T22:32:51.916Z,14.90
2023-02-03T22:35:19.127Z,22.65
2023-02-03T22:37:46.383Z,8.75
2023-02-03T22:40:13.865Z,13.35
2023-02-03T22:42:41.051Z,9.10
2023-02-03T22:45:08.665Z,15.65
2023-02-03T22:47:35.796Z,14.88
2023-02-03T22:50:03.144Z,12.82
2023-02-03T22:52:30.380Z,13.95
2023-02-03T22:54:57.520Z,13.93
2023-02-03T22:57:24.799Z,10.40
2023-02-03T22:59:51.985Z,12.77
2023-02-03T23:02:19.427Z,11.50
2023-02-03T23:04:46.661Z,16.30
2023-02-03T23:07:14.082Z,9.55
2023-02-03T23:09:41.204Z,13.23
2023-02-03T23:12:08.813Z,14.20
2023-02-03T23:14:36.222Z,10.80
2023-02-03T23:17:03.657Z,8.30
2023-02-03T23:19:30.820Z,16.45
2023-02-03T23:21:59.335Z,16.45
2023-02-03T23:24:26.535Z,14.35
2023-02-03T23:26:56.409Z,14.35
2023-02-03T23:29:23.743Z,12.05
2023-02-03T23:31:51.002Z,19.33
2023-02-03T23:34:36.947Z,13.13
2023-02-03T23:37:04.170Z,11.32
2023-02-03T23:39:31.679Z,13.32
2023-02-03T23:41:58.885Z,14.55
2023-02-03T23:44:26.033Z,12.88
2023-02-03T23:46:53.153Z,9.57
2023-02-03T23:49:20.296Z,14.90
2023-02-03T23:51:47.494Z,11.88
2023-02-03T23:54:14.719Z,10.38
2023-02-03T23:56:42.138Z,14.88
2023-02-03T23:59:09.734Z,18.05
